Weather observations for the past three days for
Greenwood, Greenwood-LeFlore Airport
Imperial (Metric)
Date Time (cdt) Wind (mph) Vis. (mi.) Weather Sky Cond. Temperature (ºF) Relative Humidity Wind Chill (°F) Heat Index (°F) Pressure Precipitation (in)
Air Dwpt 6 hour altimeter (in) sea level (mb) 1 hr 3 hr 6 hr
Max. Min.
04 12:53 SW 16 G 23 10.00 Partly Cloudy SCT060 77 54 77 59 45% 78 29.97 1014.7
04 11:53 SW 10 10.00 Fair CLR 75 53.1 46% 78 29.99 1015.5
04 10:53 SW 13 G 22 10.00 Fair CLR 73.9 53.1 48% 30.01 1016.0
04 09:53 SW 13 G 18 10.00 Fair CLR 71.1 53.1 53% 30.02 1016.2
04 08:53 SW 8 G 20 10.00 Fair CLR 66 54 65% 30.02 1016.4
04 07:53 SW 10 10.00 Fair CLR 62.1 52 70% 30.01 1015.9
04 06:53 SW 9 10.00 Fair CLR 59 51.1 60.1 55.9 75% 30 1015.7
04 05:53 SW 8 10.00 Fair CLR 57 50 78% 29.98 1015.2
04 04:53 SW 8 10.00 Fair CLR 57.9 50 75% 29.99 1015.3
04 03:53 S 5 10.00 Fair CLR 57.9 50 75% 30 1015.6
04 02:53 S 6 10.00 Fair CLR 57.9 50 75% 30 1015.8
04 01:53 S 3 10.00 Fair CLR 60.1 48 65% 30.02 1016.2
04 00:53 S 5 10.00 Fair CLR 59 48.9 71.1 57 69% 30.03 1016.9
03 23:53 S 5 10.00 Fair CLR 60.1 50 70% 30.04 1017.0
03 22:53 S 5 10.00 Fair CLR 60.1 51.1 72% 30.04 1017.1
03 21:53 S 3 10.00 Fair CLR 60.1 52 75% 30.05 1017.2
03 20:53 S 3 10.00 Fair CLR 61 55 81% 30.04 1017.0
03 19:53 S 5 10.00 Fair CLR 66 51.1 59% 30.02 1016.3
03 17:53 SW 6 10.00 Fair CLR 73.9 46.9 38% 30.03 1016.7
03 16:53 Vrbl 6 10.00 Fair CLR 75 45 34% 77 30.05 1017.3
03 15:53 Vrbl 6 10.00 Fair CLR 75 44.1 33% 77 30.08 1018.3
03 14:53 N 6 10.00 Fair CLR 75 44.1 33% 77 30.11 1019.3
03 13:53 SW 8 10.00 Fair CLR 73.9 43 33% 30.13 1020.1
03 12:53 Vrbl 6 10.00 Fair CLR 72 41 73 48.9 33% 30.16 1020.9
03 11:53 Vrbl 5 10.00 Fair CLR 70 46 42% 30.18 1021.8
03 10:53 Vrbl 5 10.00 Fair CLR 66.9 43 42% 30.19 1022.4
03 09:53 Vrbl 6 10.00 Fair CLR 64.9 41 42% 30.2 1022.4
03 08:53 E 10 10.00 Fair CLR 61 41 48% 30.19 1022.2
03 07:53 Vrbl 3 10.00 Fair CLR 55 42.1 62% 30.18 1022.1
03 06:53 Calm 10.00 Fair CLR 48.9 44.1 53.1 46 83% 30.18 1021.9
03 05:53 Calm 10.00 Fair CLR 46.9 43 86% 30.16 1021.2
03 04:53 Calm 10.00 Fair CLR 48 43 83% 30.14 1020.6
03 03:53 NE 7 10.00 Fair CLR 51.1 43 74% 30.13 1020.3
03 02:53 E 9 10.00 Fair CLR 52 44.1 75% 30.12 1019.7
03 01:53 N 3 10.00 Fair CLR 48 46 93% 30.12 1019.8
03 00:53 NE 3 10.00 Fair CLR 48.9 46.9 69.1 48.9 93% 30.1 1019.4
02 23:53 Calm 10.00 Fair CLR 51.1 48 89% 30.1 1019.2
02 22:53 Calm 10.00 Fair CLR 52 48 86% 30.1 1019.0
02 21:53 Calm 10.00 A Few Clouds FEW080 55 48.9 80% 30.09 1018.8
02 20:53 Calm 10.00 Mostly Cloudy BKN080 57.9 46.9 67% 30.07 1018.2
02 19:53 Calm 10.00 Mostly Cloudy BKN080 BKN095 62.1 46.9 58% 30.05 1017.5
02 18:53 N 5 10.00 Mostly Cloudy SCT080 BKN095 69.1 42.1 72 68 38% 30.03 1016.9
02 17:53 Vrbl 7 10.00 A Few Clouds FEW095 70 37.9 31% 30.03 1016.9
02 16:53 N 8 10.00 A Few Clouds FEW090 70 39 32% 30.04 1016.9
02 15:53 N 7 10.00 Partly Cloudy SCT090 68 39 35% 30.05 1017.4
02 14:53 Calm 10.00 A Few Clouds FEW080 70 37.9 31% 30.07 1018.1
02 13:53 Vrbl 7 G 18 10.00 Fair CLR 71.1 39.9 32% 30.08 1018.4
02 12:53 N 8 G 20 10.00 Fair CLR 69.1 37 69.1 52 31% 30.09 1018.7
02 11:53 Vrbl 5 10.00 Fair CLR 68 39 35% 30.1 1019.0
02 10:53 N 12 10.00 Fair CLR 66.9 37 33% 30.11 1019.4
02 09:53 NE 8 10.00 Fair CLR 64 37.9 38% 30.1 1019.1
02 08:53 N 6 10.00 Fair CLR 59 44.1 58% 30.08 1018.6
02 07:53 N 6 10.00 Fair CLR 55 45 69% 30.06 1018.0
02 06:53 N 5 10.00 Fair CLR 51.1 45 57 50 80% 30.04 1017.2
02 05:53 N 6 10.00 Fair CLR 52 42.1 69% 30.02 1016.4
02 04:53 N 5 10.00 Fair CLR 54 43 67% 30 1015.8
02 03:53 N 5 10.00 Fair CLR 54 46 75% 29.99 1015.5
02 02:53 NE 5 10.00 Partly Cloudy SCT050 55 51.1 87% 30 1015.7
02 01:53 NE 5 10.00 A Few Clouds FEW120 55.9 52 87% 29.99 1015.4
02 00:53 N 5 10.00 Partly Cloudy SCT110 55.9 52 59 55 87% 30.02 1016.5
01 23:53 Calm 10.00 Overcast OVC110 57 52 83% 30.03 1016.7
01 22:53 N 6 10.00 Mostly Cloudy BKN110 57.9 52 81% 29.99 1015.5
01 21:53 Calm 10.00 Fair CLR 57 54 90% 29.98 1015.2
01 20:53 Calm 10.00 Fair CLR 55.9 54 93% 29.97 1014.9
01 19:53 Calm 10.00 Fair CLR 57 54 90% 29.98 1015.1
01 18:53 Calm 10.00 Mostly Cloudy BKN110 59 53.1 63 59 81% 29.97 1014.7
01 17:53 NE 6 10.00 Mostly Cloudy BKN110 62.1 48.9 62% 29.93 1013.5
01 16:53 NE 7 10.00 Mostly Cloudy BKN120 62.1 46 56% 29.94 1013.7
01 15:53 N 6 10.00 A Few Clouds FEW120 62.1 46.9 58% 29.95 1014.2
01 14:53 NE 7 10.00 Fair CLR 62.1 46.9 58% 29.98 1015.1
01 13:53 NE 7 10.00 Overcast FEW046 BKN075 OVC095 62.1 46.9 58% 30.01 1016.1
Date Time (cdt) Wind (mph) Vis. (mi.) Weather Sky Cond. Air Dwpt Max. Min. Relative Humidity Wind Chill (°F) Heat Index (°F) altimeter (in) sea level (mb) 1 hr 3 hr 6 hr
6 hour
Temperature (ºF) Pressure Precipitation (in)